Time;durP1;ratioP1;P1;durP2;ratioP2;P2;SDS_P1;SDS_P2;PMS_P1;PMS_P2;Temp;Humidity;BMP_temperature;BMP_pressure;BME280_temperature;BME280_humidity;BME280_pressure;Samples;Min_cycle;Max_cycle;Signal;HPM_P1;HPM_P2
2023/11/02 00:01:56;;;;;;;5.60;1.00;;;10.60;99.90;;;;;;4925247;28;89269;-77
2023/11/02 00:04:23;;;;;;;7.57;1.35;;;10.70;99.90;;;;;;4926142;28;89277;-76
2023/11/02 00:06:50;;;;;;;6.47;1.20;;;10.70;99.90;;;;;;4923985;28;92411;-77
2023/11/02 00:09:55;;;;;;;10.50;1.63;;;10.70;99.90;;;;;;4924356;28;87671;-77
2023/11/02 00:12:27;;;;;;;7.72;1.63;;;10.80;99.90;;;;;;4866229;28;88294;-79
2023/11/02 00:14:54;;;;;;;8.18;1.40;;;10.80;99.90;;;;;;4858936;28;88945;-77
2023/11/02 00:17:35;;;;;;;4.88;0.60;;;10.90;99.90;;;;;;4848123;28;88966;-77
2023/11/02 00:20:05;;;;;;;7.72;1.10;;;10.90;99.90;;;;;;4938896;28;89248;-77
2023/11/02 00:22:34;;;;;;;7.50;1.15;;;10.90;99.90;;;;;;4925391;28;87386;-76
2023/11/02 00:25:02;;;;;;;6.85;1.13;;;11.00;99.90;;;;;;4924621;28;89191;-77
2023/11/02 00:27:28;;;;;;;8.98;1.38;;;11.00;99.90;;;;;;4924916;28;88270;-77
2023/11/02 00:29:53;;;;;;;9.70;1.10;;;11.00;99.90;;;;;;4923088;28;89057;-76
2023/11/02 00:32:20;;;;;;;4.63;0.60;;;11.00;99.90;;;;;;4923274;28;89799;-76
2023/11/02 00:34:46;;;;;;;10.82;1.13;;;11.10;99.90;;;;;;4925004;28;88685;-77
2023/11/02 00:37:12;;;;;;;5.15;0.85;;;11.10;99.90;;;;;;4925127;28;87917;-77
2023/11/02 00:39:38;;;;;;;15.88;1.20;;;11.10;99.90;;;;;;4923368;28;87800;-77
2023/11/02 00:42:04;;;;;;;9.45;1.23;;;11.10;99.90;;;;;;4922688;28;88169;-77
2023/11/02 00:44:30;;;;;;;18.63;0.88;;;11.10;99.90;;;;;;4923701;28;89894;-77
2023/11/02 00:46:59;;;;;;;4.47;0.73;;;11.20;99.90;;;;;;4924654;28;89445;-76
2023/11/02 00:49:31;;;;;;;7.63;0.77;;;11.20;99.90;;;;;;4923805;28;88982;-77
2023/11/02 00:52:00;;;;;;;7.43;0.55;;;11.20;99.90;;;;;;4921922;28;88874;-76
2023/11/02 00:54:44;;;;;;;10.38;0.90;;;11.20;99.90;;;;;;4921403;28;91009;-77
2023/11/02 00:57:37;;;;;;;9.77;0.90;;;11.20;99.90;;;;;;4923668;28;88062;-76
2023/11/02 01:00:03;;;;;;;5.60;0.60;;;11.20;99.90;;;;;;4924974;28;87692;-76
2023/11/02 01:02:37;;;;;;;7.35;1.27;;;11.20;99.90;;;;;;4925120;28;87832;-76
2023/11/02 01:05:04;;;;;;;8.23;0.90;;;11.20;99.90;;;;;;4923178;28;92771;-77
2023/11/02 01:07:33;;;;;;;8.65;0.80;;;11.30;99.90;;;;;;4925508;28;90038;-76
2023/11/02 01:10:04;;;;;;;8.55;1.13;;;11.30;99.90;;;;;;4924580;28;87938;-77
2023/11/02 01:12:35;;;;;;;7.00;0.88;;;11.30;99.90;;;;;;4932458;28;87124;-75
2023/11/02 01:15:03;;;;;;;12.57;1.20;;;11.40;99.90;;;;;;4928105;28;89463;-77
2023/11/02 01:17:31;;;;;;;8.50;0.80;;;11.30;99.90;;;;;;4930804;28;88460;-76
2023/11/02 01:20:08;;;;;;;8.15;1.20;;;11.40;99.90;;;;;;4922185;28;88665;-77
2023/11/02 01:22:55;;;;;;;15.80;1.75;;;11.40;99.90;;;;;;4937930;28;88029;-77
2023/11/02 01:25:24;;;;;;;9.50;0.90;;;11.40;99.90;;;;;;4937558;28;91836;-76
2023/11/02 01:27:50;;;;;;;7.72;0.98;;;11.40;99.90;;;;;;4923996;28;88237;-76
2023/11/02 01:30:22;;;;;;;9.70;1.08;;;11.40;99.90;;;;;;4923850;28;87720;-77
2023/11/02 01:32:47;;;;;;;7.85;0.85;;;11.40;99.90;;;;;;4923065;28;87811;-77
2023/11/02 01:35:32;;;;;;;8.50;1.17;;;11.40;99.90;;;;;;4923080;28;89844;-77
2023/11/02 01:38:00;;;;;;;5.07;0.77;;;11.40;99.90;;;;;;4924324;28;87960;-77
2023/11/02 01:40:48;;;;;;;6.35;0.82;;;11.50;99.90;;;;;;4923164;28;87833;-76
2023/11/02 01:43:24;;;;;;;6.20;0.93;;;11.40;99.90;;;;;;4921388;28;88765;-76
2023/11/02 01:45:55;;;;;;;8.13;1.65;;;11.50;99.90;;;;;;4920891;28;89157;-76
2023/11/02 01:48:49;;;;;;;7.65;0.77;;;11.50;99.90;;;;;;4923887;28;89820;-77
2023/11/02 01:51:33;;;;;;;5.03;0.80;;;11.50;99.90;;;;;;4923332;28;88105;-77
2023/11/02 01:54:35;;;;;;;10.93;1.10;;;11.50;99.90;;;;;;4922464;28;94047;-76
2023/11/02 01:57:10;;;;;;;4.95;0.60;;;11.60;99.90;;;;;;4920305;28;91536;-76
2023/11/02 01:59:54;;;;;;;6.30;1.05;;;11.60;99.90;;;;;;4922839;28;88252;-77
2023/11/02 02:02:44;;;;;;;13.10;1.00;;;11.60;99.90;;;;;;4923993;28;88417;-76
2023/11/02 02:05:13;;;;;;;7.32;0.80;;;11.60;99.90;;;;;;4920633;28;94988;-75
2023/11/02 02:07:46;;;;;;;7.32;1.40;;;11.60;99.90;;;;;;4921623;28;88319;-76
2023/11/02 02:10:19;;;;;;;6.45;1.75;;;11.60;99.90;;;;;;4922772;28;88017;-76
2023/11/02 02:13:09;;;;;;;7.60;0.93;;;11.60;99.90;;;;;;4922202;28;88797;-76
2023/11/02 02:15:57;;;;;;;9.05;1.02;;;11.60;99.90;;;;;;4921407;28;88270;-76
2023/11/02 02:18:35;;;;;;;12.20;1.70;;;11.70;99.90;;;;;;4922523;28;88848;-76
2023/11/02 02:21:11;;;;;;;4.70;0.70;;;11.70;99.90;;;;;;4920857;28;91351;-75
2023/11/02 02:23:41;;;;;;;4.10;0.77;;;11.80;99.90;;;;;;4923187;28;88054;-76
2023/11/02 02:26:14;;;;;;;5.22;0.82;;;11.80;99.90;;;;;;4937546;28;91025;-76
2023/11/02 02:29:04;;;;;;;6.10;1.02;;;11.80;99.90;;;;;;4920731;28;90797;-77
2023/11/02 02:32:01;;;;;;;8.38;1.38;;;11.80;99.90;;;;;;4937925;28;90467;-76
2023/11/02 02:34:41;;;;;;;7.75;0.80;;;11.80;99.90;;;;;;4922863;28;87224;-76
2023/11/02 02:37:17;;;;;;;9.18;1.05;;;11.80;99.90;;;;;;4920065;28;90437;-77
2023/11/02 02:40:03;;;;;;;5.20;1.10;;;11.90;99.90;;;;;;4920955;28;89521;-77
2023/11/02 02:42:33;;;;;;;3.55;1.25;;;11.90;99.90;;;;;;4934909;28;92556;-74
2023/11/02 02:45:10;;;;;;;8.02;0.93;;;11.90;99.90;;;;;;4935350;28;88698;-74
2023/11/02 02:47:37;;;;;;;6.15;1.02;;;11.90;99.90;;;;;;4924972;28;90701;-75
2023/11/02 02:50:04;;;;;;;5.43;0.65;;;11.90;99.90;;;;;;4920812;28;88034;-75
2023/11/02 02:52:36;;;;;;;3.72;0.60;;;11.90;99.90;;;;;;4922492;28;87738;-75
2023/11/02 02:55:07;;;;;;;3.30;0.50;;;11.90;99.90;;;;;;4925354;28;87866;-75
2023/11/02 02:57:37;;;;;;;5.93;0.45;;;11.90;99.90;;;;;;4924380;28;88209;-75
2023/11/02 03:00:06;;;;;;;1.83;0.50;;;11.90;99.90;;;;;;4924868;28;88927;-75
2023/11/02 03:02:34;;;;;;;4.43;0.60;;;11.80;99.90;;;;;;4926087;28;88492;-75
2023/11/02 03:05:01;;;;;;;4.28;0.50;;;11.90;99.90;;;;;;4923821;28;88748;-75
2023/11/02 03:07:31;;;;;;;2.78;0.55;;;11.90;99.90;;;;;;4924369;28;88015;-73
2023/11/02 03:10:01;;;;;;;7.63;0.65;;;11.80;99.90;;;;;;4924332;28;88382;-76
2023/11/02 03:12:33;;;;;;;3.00;0.50;;;11.90;99.90;;;;;;4925802;28;88005;-75
2023/11/02 03:15:04;;;;;;;7.20;0.50;;;11.80;99.90;;;;;;4923468;28;88052;-75
2023/11/02 03:18:03;;;;;;;4.75;0.60;;;11.80;99.90;;;;;;4925251;28;88002;-75
2023/11/02 03:20:28;;;;;;;4.00;0.50;;;11.80;99.90;;;;;;4924612;28;92786;-76
2023/11/02 03:23:20;;;;;;;3.70;0.88;;;11.80;99.90;;;;;;4924395;28;87601;-76
2023/11/02 03:25:56;;;;;;;6.78;0.50;;;11.80;99.90;;;;;;4906604;28;88353;-76
2023/11/02 03:28:30;;;;;;;5.90;0.50;;;11.80;99.90;;;;;;4922385;28;90744;-75
2023/11/02 03:31:14;;;;;;;4.90;0.77;;;11.80;99.90;;;;;;4923963;28;88794;-75
2023/11/02 03:34:15;;;;;;;3.28;0.40;;;11.80;99.90;;;;;;4923427;28;89168;-75
2023/11/02 03:37:08;;;;;;;5.13;0.68;;;11.80;99.90;;;;;;4924133;28;89162;-75
2023/11/02 03:40:19;;;;;;;2.78;0.95;;;11.80;99.90;;;;;;4911223;28;90241;-76
2023/11/02 03:43:00;;;;;;;6.30;0.50;;;11.80;99.90;;;;;;4923319;28;88359;-76
2023/11/02 03:45:58;;;;;;;0.70;0.22;;;11.80;99.90;;;;;;4924565;28;88785;-75
2023/11/02 03:48:33;;;;;;;3.35;0.40;;;11.70;99.90;;;;;;4924058;28;87835;-76
2023/11/02 03:51:48;;;;;;;1.48;0.40;;;11.70;99.90;;;;;;4922137;28;89116;-76
2023/11/02 03:54:42;;;;;;;5.10;0.40;;;11.70;99.90;;;;;;4918882;28;88480;-76
2023/11/02 03:57:19;;;;;;;3.05;0.60;;;11.60;99.90;;;;;;4923078;28;88093;-75
2023/11/02 04:00:00;;;;;;;2.63;0.52;;;11.60;99.90;;;;;;4922564;28;88920;-76
2023/11/02 04:02:31;;;;;;;3.35;0.40;;;11.70;99.90;;;;;;4925302;28;88091;-76
2023/11/02 04:05:08;;;;;;;6.07;0.90;;;11.70;99.90;;;;;;4923432;28;88667;-76
2023/11/02 04:07:53;;;;;;;4.13;0.40;;;11.70;99.90;;;;;;4921338;28;88602;-76
2023/11/02 04:10:54;;;;;;;4.90;0.60;;;11.70;99.90;;;;;;4937702;28;88583;-75
2023/11/02 04:13:27;;;;;;;4.22;0.50;;;11.70;99.90;;;;;;4937675;28;90111;-76
2023/11/02 04:15:53;;;;;;;3.63;1.35;;;11.70;99.90;;;;;;4922867;28;88779;-76
2023/11/02 04:18:19;;;;;;;2.63;0.50;;;11.70;99.90;;;;;;4922582;28;91615;-76
2023/11/02 04:20:45;;;;;;;5.28;0.45;;;11.70;99.90;;;;;;4923937;28;88036;-76
2023/11/02 04:23:14;;;;;;;2.70;0.30;;;11.80;99.90;;;;;;4923251;28;88056;-76
2023/11/02 04:25:40;;;;;;;3.92;0.50;;;11.80;99.90;;;;;;4922869;28;89839;-75
2023/11/02 04:28:05;;;;;;;4.70;0.40;;;11.90;99.90;;;;;;4938569;28;91177;-76
2023/11/02 04:30:32;;;;;;;5.90;0.50;;;11.90;99.90;;;;;;4923340;28;88166;-76
2023/11/02 04:32:57;;;;;;;3.83;0.50;;;11.90;99.90;;;;;;4921550;28;88160;-75
2023/11/02 04:35:23;;;;;;;2.63;0.50;;;11.90;99.90;;;;;;4924585;28;88732;-74
2023/11/02 04:38:05;;;;;;;2.58;0.57;;;11.90;99.90;;;;;;4923616;28;88456;-75
2023/11/02 04:40:33;;;;;;;8.57;0.47;;;11.90;99.90;;;;;;4922428;28;87821;-75
2023/11/02 04:43:00;;;;;;;2.03;0.50;;;11.90;99.90;;;;;;4912943;28;94918;-76
2023/11/02 04:45:27;;;;;;;3.33;0.40;;;12.00;99.90;;;;;;4911645;28;88107;-76
2023/11/02 04:47:53;;;;;;;2.85;0.50;;;12.00;99.90;;;;;;4938523;28;92160;-75
2023/11/02 04:50:36;;;;;;;1.73;0.52;;;12.00;99.90;;;;;;4921850;28;89069;-76
2023/11/02 04:53:02;;;;;;;4.50;0.60;;;12.00;99.90;;;;;;4923085;28;94858;-75
2023/11/02 04:55:28;;;;;;;2.40;0.60;;;12.00;99.90;;;;;;4936606;28;91687;-76
2023/11/02 04:57:54;;;;;;;9.18;0.50;;;12.10;99.90;;;;;;4929105;28;88269;-76
2023/11/02 05:00:19;;;;;;;1.23;0.43;;;12.10;99.90;;;;;;4932207;28;87990;-75
2023/11/02 05:02:45;;;;;;;3.40;0.63;;;12.20;99.90;;;;;;4924146;28;89279;-74
2023/11/02 05:05:11;;;;;;;2.80;0.50;;;12.20;99.90;;;;;;4927781;28;89157;-75
2023/11/02 05:07:36;;;;;;;0.95;0.43;;;12.30;99.90;;;;;;4925390;28;91462;-75
2023/11/02 05:10:03;;;;;;;3.80;0.50;;;12.30;99.90;;;;;;4924313;28;87838;-75
2023/11/02 05:12:29;;;;;;;0.93;0.43;;;12.30;99.90;;;;;;4926200;28;88094;-75
2023/11/02 05:14:55;;;;;;;1.52;0.40;;;12.40;99.90;;;;;;4924893;28;90124;-75
2023/11/02 05:17:20;;;;;;;1.02;0.30;;;12.40;99.90;;;;;;4929233;28;88981;-73
2023/11/02 05:19:46;;;;;;;0.60;0.30;;;12.40;99.90;;;;;;4920713;28;87718;-76
2023/11/02 05:22:12;;;;;;;2.38;0.30;;;12.40;99.90;;;;;;4921458;28;87230;-75
2023/11/02 05:24:37;;;;;;;4.18;0.50;;;12.40;99.90;;;;;;4920929;28;89706;-76
2023/11/02 05:27:03;;;;;;;6.57;0.60;;;12.40;99.90;;;;;;4921805;28;91593;-75
2023/11/02 05:29:29;;;;;;;2.50;0.50;;;12.40;99.90;;;;;;4925365;28;88159;-75
2023/11/02 05:31:55;;;;;;;4.85;1.02;;;12.40;99.90;;;;;;4927226;28;87000;-76
2023/11/02 05:34:21;;;;;;;0.70;0.25;;;12.40;99.90;;;;;;4926088;28;88822;-76
2023/11/02 05:36:47;;;;;;;1.17;0.45;;;12.40;99.90;;;;;;4923062;28;90423;-75
2023/11/02 05:39:13;;;;;;;0.77;0.43;;;12.40;99.90;;;;;;4921963;28;88494;-76
2023/11/02 05:41:38;;;;;;;3.08;0.30;;;12.40;99.90;;;;;;4921970;28;88160;-75
2023/11/02 05:44:05;;;;;;;1.27;0.50;;;12.40;99.90;;;;;;4923561;28;88045;-75
2023/11/02 05:46:31;;;;;;;1.08;0.50;;;12.40;99.90;;;;;;4920734;28;89922;-75
2023/11/02 05:48:56;;;;;;;2.15;0.57;;;12.40;99.90;;;;;;4922904;28;87635;-75
2023/11/02 05:51:22;;;;;;;1.05;0.52;;;12.40;99.90;;;;;;4922170;28;88961;-75
2023/11/02 05:53:48;;;;;;;1.20;0.43;;;12.40;99.90;;;;;;4930090;28;88046;-74
2023/11/02 05:56:15;;;;;;;0.90;0.30;;;12.50;99.90;;;;;;4930378;28;90461;-75
2023/11/02 05:58:42;;;;;;;1.95;0.30;;;12.50;99.90;;;;;;4907406;28;87844;-76
2023/11/02 06:01:08;;;;;;;2.63;0.45;;;12.50;99.90;;;;;;4914723;28;87918;-76
2023/11/02 06:03:34;;;;;;;5.65;0.60;;;12.60;99.90;;;;;;4920156;28;89993;-74
2023/11/02 06:05:59;;;;;;;0.95;0.30;;;12.60;99.90;;;;;;4919705;28;92303;-76
2023/11/02 06:08:25;;;;;;;1.48;0.43;;;12.60;99.90;;;;;;4921361;28;88096;-76
2023/11/02 06:10:51;;;;;;;1.25;0.30;;;12.50;99.90;;;;;;4920969;28;87645;-75
2023/11/02 06:13:16;;;;;;;4.30;0.40;;;12.50;99.90;;;;;;4920459;28;88315;-75
2023/11/02 06:15:42;;;;;;;1.60;0.32;;;12.50;99.90;;;;;;4922356;28;88012;-76
2023/11/02 06:18:08;;;;;;;0.85;0.60;;;12.50;99.90;;;;;;4922988;28;87703;-77
2023/11/02 06:20:34;;;;;;;1.52;0.40;;;12.40;99.90;;;;;;4921702;28;87268;-76
2023/11/02 06:23:01;;;;;;;2.95;0.45;;;12.40;99.90;;;;;;4921361;28;92606;-76
2023/11/02 06:25:27;;;;;;;3.65;0.40;;;12.40;99.90;;;;;;4920654;28;89491;-76
2023/11/02 06:27:53;;;;;;;1.95;0.40;;;12.40;99.90;;;;;;4922973;28;88640;-77
2023/11/02 06:30:19;;;;;;;1.13;0.45;;;12.40;99.90;;;;;;4927555;28;87702;-76
2023/11/02 06:32:45;;;;;;;1.58;0.75;;;12.40;99.90;;;;;;4926264;28;89477;-76
2023/11/02 06:35:11;;;;;;;1.02;0.50;;;12.50;99.90;;;;;;4925989;28;88886;-76
2023/11/02 06:37:58;;;;;;;1.58;0.55;;;12.50;99.90;;;;;;4927096;28;87704;-78
2023/11/02 06:40:25;;;;;;;6.20;0.70;;;12.50;99.90;;;;;;4923245;28;89166;-76
2023/11/02 06:42:52;;;;;;;5.53;0.82;;;12.50;99.90;;;;;;4925029;28;89070;-77
2023/11/02 06:45:18;;;;;;;3.50;0.60;;;12.50;99.90;;;;;;4925657;28;87907;-76
2023/11/02 06:47:45;;;;;;;1.92;0.50;;;12.50;99.90;;;;;;4924137;28;87589;-77
2023/11/02 06:50:10;;;;;;;5.57;0.73;;;12.50;99.90;;;;;;4925507;28;88110;-76
2023/11/02 06:52:37;;;;;;;5.10;0.50;;;12.50;99.90;;;;;;4925630;28;89644;-77
2023/11/02 06:55:03;;;;;;;4.68;1.25;;;12.60;99.90;;;;;;4921630;28;89046;-76
2023/11/02 06:57:30;;;;;;;5.28;0.80;;;12.60;99.90;;;;;;4920085;28;88044;-75
2023/11/02 06:59:58;;;;;;;6.75;0.80;;;12.60;99.90;;;;;;4923263;28;89356;-76
2023/11/02 07:02:26;;;;;;;3.50;1.00;;;12.60;99.90;;;;;;4925244;28;90857;-76
2023/11/02 07:04:58;;;;;;;4.35;0.70;;;12.60;99.90;;;;;;4928510;28;92551;-76
2023/11/02 07:07:26;;;;;;;4.95;0.95;;;12.60;99.90;;;;;;4931722;28;88354;-75
2023/11/02 07:09:53;;;;;;;7.03;0.60;;;12.60;99.90;;;;;;4939825;28;88980;-75
2023/11/02 07:12:19;;;;;;;5.43;0.93;;;12.60;99.90;;;;;;4930890;28;88054;-75
2023/11/02 07:14:46;;;;;;;9.45;1.08;;;12.60;99.90;;;;;;4928509;28;88136;-76
2023/11/02 07:17:13;;;;;;;6.97;0.85;;;12.60;99.90;;;;;;4926570;28;89174;-77
2023/11/02 07:19:38;;;;;;;7.18;0.60;;;12.60;99.90;;;;;;4927843;28;88183;-77
2023/11/02 07:22:04;;;;;;;5.07;0.82;;;12.60;99.90;;;;;;4928400;28;91863;-76
2023/11/02 07:24:30;;;;;;;6.38;0.82;;;12.60;99.90;;;;;;4924506;28;89889;-76
2023/11/02 07:26:56;;;;;;;5.03;0.68;;;12.50;99.90;;;;;;4928034;28;87888;-76
2023/11/02 07:29:22;;;;;;;5.32;0.63;;;12.50;99.90;;;;;;4927664;28;88471;-76
2023/11/02 07:31:48;;;;;;;2.53;0.93;;;12.60;99.90;;;;;;4927485;28;87939;-76
2023/11/02 07:34:13;;;;;;;4.20;0.98;;;12.50;99.90;;;;;;4922980;28;88134;-76
2023/11/02 07:36:39;;;;;;;7.45;0.68;;;12.50;99.90;;;;;;4928010;28;87694;-76
2023/11/02 07:39:05;;;;;;;6.40;0.88;;;12.50;99.90;;;;;;4927470;28;88317;-76
2023/11/02 07:41:34;;;;;;;8.57;0.93;;;12.60;99.90;;;;;;4927162;28;89551;-75
2023/11/02 07:44:00;;;;;;;5.70;0.60;;;12.60;99.90;;;;;;4921267;28;94044;-75
2023/11/02 07:46:26;;;;;;;6.95;0.98;;;12.70;99.90;;;;;;4920196;28;88134;-76
2023/11/02 07:48:52;;;;;;;6.45;0.98;;;12.60;99.90;;;;;;4922237;28;88391;-75
2023/11/02 07:51:19;;;;;;;9.98;0.93;;;12.70;99.90;;;;;;4920179;28;88318;-76
2023/11/02 07:53:44;;;;;;;6.35;0.93;;;12.70;99.90;;;;;;4920264;28;89354;-74
2023/11/02 07:56:10;;;;;;;6.82;0.88;;;12.90;99.90;;;;;;4920726;28;87758;-74
2023/11/02 07:58:36;;;;;;;6.47;0.77;;;13.00;99.90;;;;;;4921223;28;90985;-73
2023/11/02 08:01:03;;;;;;;8.18;0.60;;;13.10;99.90;;;;;;4920605;28;92131;-74
2023/11/02 08:03:28;;;;;;;6.85;1.00;;;13.10;99.90;;;;;;4919717;28;90222;-74
2023/11/02 08:05:54;;;;;;;6.32;0.77;;;13.20;99.90;;;;;;4933465;28;89385;-75
2023/11/02 08:08:20;;;;;;;3.67;1.25;;;13.30;99.90;;;;;;4919492;28;88722;-74
2023/11/02 08:10:46;;;;;;;2.70;0.50;;;13.40;99.90;;;;;;4921031;28;92314;-74
2023/11/02 08:13:12;;;;;;;7.93;1.20;;;13.50;99.90;;;;;;4919932;28;92249;-74
2023/11/02 08:15:38;;;;;;;5.22;0.60;;;13.60;99.90;;;;;;4921236;28;87846;-74
2023/11/02 08:18:04;;;;;;;4.13;0.75;;;13.70;99.90;;;;;;4919648;28;87823;-73
2023/11/02 08:20:29;;;;;;;8.18;1.33;;;13.70;99.90;;;;;;4922542;28;88989;-73
2023/11/02 08:22:55;;;;;;;5.38;0.75;;;13.70;99.90;;;;;;4922998;28;87968;-74
2023/11/02 08:25:21;;;;;;;3.75;0.60;;;13.70;99.90;;;;;;4923192;28;87771;-73
2023/11/02 08:27:48;;;;;;;7.95;1.05;;;13.70;99.90;;;;;;4925840;28;90176;-73
2023/11/02 08:30:15;;;;;;;7.00;0.60;;;13.70;99.90;;;;;;4924486;28;89647;-74
2023/11/02 08:32:41;;;;;;;8.43;0.93;;;13.80;99.90;;;;;;4928963;28;89784;-74
2023/11/02 08:35:07;;;;;;;6.60;0.80;;;13.80;99.90;;;;;;4923577;28;87713;-73
2023/11/02 08:37:33;;;;;;;6.28;0.80;;;13.90;99.90;;;;;;4920256;28;90636;-73
2023/11/02 08:39:59;;;;;;;8.52;1.10;;;13.90;99.90;;;;;;4920259;28;91831;-74
2023/11/02 08:42:28;;;;;;;9.07;0.93;;;13.90;99.90;;;;;;4922801;28;88264;-74
2023/11/02 08:44:53;;;;;;;4.95;0.60;;;13.90;99.90;;;;;;4922404;28;87957;-73
2023/11/02 08:47:19;;;;;;;5.82;0.70;;;14.00;99.90;;;;;;4924306;28;87706;-72
2023/11/02 08:49:44;;;;;;;14.63;1.00;;;14.00;99.90;;;;;;4918173;28;88335;-73
2023/11/02 08:52:10;;;;;;;10.18;1.20;;;14.10;99.90;;;;;;4919802;28;88398;-71
2023/11/02 08:54:36;;;;;;;5.68;0.77;;;14.20;99.90;;;;;;4919395;28;88820;-72
2023/11/02 08:57:02;;;;;;;9.18;0.80;;;14.30;99.90;;;;;;4920120;28;87660;-75
2023/11/02 08:59:27;;;;;;;11.20;1.27;;;14.20;99.90;;;;;;4921772;28;88210;-73
2023/11/02 09:01:53;;;;;;;9.18;1.27;;;14.30;99.90;;;;;;4920732;28;88328;-74
2023/11/02 09:04:19;;;;;;;3.88;0.75;;;14.30;99.90;;;;;;4920036;28;88067;-72
2023/11/02 09:06:45;;;;;;;14.82;1.63;;;14.20;99.90;;;;;;4921167;28;87759;-73
2023/11/02 09:09:11;;;;;;;4.50;0.80;;;14.20;99.90;;;;;;4919815;28;89334;-73
2023/11/02 09:11:37;;;;;;;7.05;0.90;;;14.20;99.90;;;;;;4916804;28;88421;-74
2023/11/02 09:14:06;;;;;;;6.80;1.10;;;14.20;99.90;;;;;;4920015;28;87430;-73
2023/11/02 09:16:32;;;;;;;6.60;0.80;;;14.20;99.90;;;;;;4917317;28;88659;-73
2023/11/02 09:19:00;;;;;;;7.47;1.23;;;14.20;99.90;;;;;;4918546;28;92064;-74
2023/11/02 09:21:27;;;;;;;5.40;0.70;;;14.20;99.90;;;;;;4921526;28;88967;-74
2023/11/02 09:23:53;;;;;;;6.97;0.90;;;14.10;99.90;;;;;;4921150;28;87602;-75
2023/11/02 09:26:19;;;;;;;3.70;0.60;;;14.10;99.90;;;;;;4923048;28;87752;-74
2023/11/02 09:28:44;;;;;;;7.90;1.23;;;14.10;99.90;;;;;;4920335;28;90053;-72
2023/11/02 09:31:12;;;;;;;6.43;1.33;;;14.10;99.90;;;;;;4915132;28;91252;-74
2023/11/02 09:33:38;;;;;;;9.13;1.25;;;14.00;99.90;;;;;;4917918;28;87763;-74
2023/11/02 09:36:06;;;;;;;9.77;1.15;;;14.00;99.90;;;;;;4916123;28;90106;-76
2023/11/02 09:38:31;;;;;;;6.90;1.02;;;14.10;99.90;;;;;;4921025;28;88134;-74
2023/11/02 09:40:58;;;;;;;4.72;1.15;;;14.20;99.90;;;;;;4920250;28;88101;-74
2023/11/02 09:43:25;;;;;;;10.32;1.30;;;14.30;99.90;;;;;;4918575;28;88533;-73
2023/11/02 09:45:51;;;;;;;10.75;1.17;;;14.30;99.90;;;;;;4916620;28;89630;-73
2023/11/02 09:48:16;;;;;;;8.40;1.23;;;14.40;99.80;;;;;;4918330;28;92451;-72
2023/11/02 09:50:42;;;;;;;12.65;1.40;;;14.40;99.70;;;;;;4917586;28;91498;-72
2023/11/02 09:53:08;;;;;;;11.32;1.33;;;14.40;99.60;;;;;;4920863;28;87893;-72
2023/11/02 09:55:38;;;;;;;12.68;1.30;;;14.40;98.90;;;;;;4920530;28;88491;-73
2023/11/02 09:58:06;;;;;;;8.60;1.13;;;14.50;99.00;;;;;;4919654;28;87766;-73
2023/11/02 10:00:32;;;;;;;11.25;1.58;;;14.50;98.10;;;;;;4921170;28;88464;-69
2023/11/02 10:02:57;;;;;;;10.85;1.25;;;14.60;98.60;;;;;;4920874;28;87790;-74
2023/11/02 10:05:25;;;;;;;11.07;1.75;;;14.70;98.40;;;;;;4922122;28;88506;-73
2023/11/02 10:07:51;;;;;;;11.75;1.40;;;14.70;98.40;;;;;;4919226;28;91873;-71
2023/11/02 10:10:20;;;;;;;13.27;1.63;;;14.80;98.10;;;;;;4921903;28;89801;-73
2023/11/02 10:12:46;;;;;;;5.40;1.00;;;14.80;97.60;;;;;;4921359;28;87710;-75
2023/11/02 10:15:16;;;;;;;8.07;1.10;;;14.90;98.20;;;;;;4931017;28;89407;-74
2023/11/02 10:17:42;;;;;;;11.73;1.20;;;15.00;98.10;;;;;;4919035;28;89185;-75
2023/11/02 10:20:17;;;;;;;13.88;1.65;;;15.00;97.30;;;;;;4919860;28;88292;-74
2023/11/02 10:22:47;;;;;;;12.88;1.75;;;15.10;97.60;;;;;;4917390;28;89388;-75
2023/11/02 10:25:14;;;;;;;12.88;1.20;;;15.10;97.40;;;;;;4916859;28;90341;-76
2023/11/02 10:27:46;;;;;;;7.57;1.00;;;15.10;97.00;;;;;;4916691;28;94073;-75
2023/11/02 10:30:12;;;;;;;9.02;1.08;;;15.10;98.20;;;;;;4920604;28;87852;-74
2023/11/02 10:32:38;;;;;;;8.63;1.23;;;15.30;97.70;;;;;;4917296;28;89261;-74
2023/11/02 10:35:05;;;;;;;7.90;1.35;;;15.30;96.30;;;;;;4920435;28;87717;-75
2023/11/02 10:37:32;;;;;;;8.73;1.38;;;15.30;96.70;;;;;;4917826;28;92412;-76
2023/11/02 10:39:58;;;;;;;11.57;1.60;;;15.30;96.80;;;;;;4917642;28;91396;-77
2023/11/02 10:42:26;;;;;;;7.50;1.20;;;15.30;96.40;;;;;;4919644;28;87691;-76
2023/11/02 10:44:52;;;;;;;14.80;1.30;;;15.30;96.00;;;;;;4924170;28;90524;-76
2023/11/02 10:47:19;;;;;;;9.48;1.25;;;15.30;96.80;;;;;;4919820;28;88491;-75
2023/11/02 10:49:45;;;;;;;9.63;1.45;;;15.30;96.30;;;;;;4920100;28;88797;-76
2023/11/02 10:52:17;;;;;;;12.93;1.38;;;15.30;95.80;;;;;;4920502;28;87736;-76
2023/11/02 10:55:01;;;;;;;10.38;1.17;;;15.30;96.10;;;;;;4926763;28;87670;-74
2023/11/02 10:57:30;;;;;;;9.32;2.15;;;15.30;95.30;;;;;;4921592;28;92824;-75
2023/11/02 10:59:59;;;;;;;11.73;1.67;;;15.30;95.60;;;;;;4919053;28;90479;-77
2023/11/02 11:02:25;;;;;;;9.68;1.10;;;15.30;94.70;;;;;;4920908;28;87976;-77
2023/11/02 11:04:51;;;;;;;17.10;1.50;;;15.30;95.20;;;;;;4918928;28;87547;-77
2023/11/02 11:07:21;;;;;;;12.15;1.35;;;15.30;94.70;;;;;;4917270;28;90095;-76
2023/11/02 11:09:50;;;;;;;7.70;1.33;;;15.20;95.10;;;;;;4919033;28;87887;-75
2023/11/02 11:12:19;;;;;;;8.43;1.20;;;15.20;94.60;;;;;;4918509;28;88062;-77
2023/11/02 11:14:48;;;;;;;11.70;1.05;;;15.10;94.70;;;;;;4918598;28;90757;-76
2023/11/02 11:17:14;;;;;;;7.88;1.88;;;15.20;94.80;;;;;;4923787;28;88060;-76
2023/11/02 11:19:40;;;;;;;12.77;1.35;;;15.10;93.60;;;;;;4925435;28;90024;-75
2023/11/02 11:22:20;;;;;;;9.20;1.63;;;15.30;94.10;;;;;;4925956;28;88704;-76
2023/11/02 11:24:54;;;;;;;22.75;1.60;;;15.50;93.30;;;;;;4923808;28;90487;-73
2023/11/02 11:27:39;;;;;;;11.15;1.00;;;15.50;92.90;;;;;;4921522;28;93228;-75
2023/11/02 11:30:23;;;;;;;10.98;1.23;;;15.40;92.30;;;;;;4920843;28;94056;-75
2023/11/02 11:32:49;;;;;;;9.07;1.98;;;15.30;91.90;;;;;;4918338;28;88084;-74
2023/11/02 11:35:17;;;;;;;14.88;1.10;;;15.20;92.40;;;;;;4920503;28;88058;-75
2023/11/02 11:37:57;;;;;;;12.70;1.65;;;15.10;92.20;;;;;;4916922;28;90093;-75
2023/11/02 11:40:26;;;;;;;10.93;1.30;;;15.10;92.10;;;;;;4922076;28;88045;-75
2023/11/02 11:42:52;;;;;;;10.90;1.83;;;15.00;92.60;;;;;;4918957;28;88165;-74
2023/11/02 11:45:48;;;;;;;7.55;1.13;;;15.00;92.10;;;;;;4921295;28;87855;-75
2023/11/02 11:48:33;;;;;;;9.82;1.50;;;15.00;92.10;;;;;;4934537;28;92976;-75
2023/11/02 11:50:59;;;;;;;6.18;1.00;;;14.90;92.10;;;;;;4919176;28;88868;-75
2023/11/02 11:53:26;;;;;;;10.50;1.20;;;14.90;93.30;;;;;;4921821;28;88212;-76
2023/11/02 11:55:55;;;;;;;7.63;1.00;;;14.80;92.30;;;;;;4921446;28;90873;-76
2023/11/02 11:58:50;;;;;;;12.25;1.20;;;14.80;93.50;;;;;;4922553;28;90883;-76
2023/11/02 12:01:18;;;;;;;11.07;1.30;;;14.60;93.90;;;;;;4907027;28;88419;-75
2023/11/02 12:03:44;;;;;;;11.05;1.58;;;14.50;94.10;;;;;;4921310;28;87983;-74
2023/11/02 12:06:12;;;;;;;9.20;1.30;;;14.40;93.90;;;;;;4922274;28;87448;-76
2023/11/02 12:08:49;;;;;;;13.40;1.48;;;14.40;94.30;;;;;;4920187;28;91775;-75
2023/11/02 12:11:25;;;;;;;9.07;1.27;;;14.50;92.90;;;;;;4932296;28;91253;-74
2023/11/02 12:13:52;;;;;;;12.23;1.42;;;14.60;93.30;;;;;;4919466;28;88576;-75
2023/11/02 12:16:20;;;;;;;9.75;1.85;;;14.70;92.50;;;;;;4923631;28;87720;-75
2023/11/02 12:18:49;;;;;;;7.68;0.82;;;14.70;92.40;;;;;;4925776;28;88119;-75
2023/11/02 12:21:19;;;;;;;11.35;1.55;;;14.70;92.80;;;;;;4927747;28;88379;-76
2023/11/02 12:23:45;;;;;;;5.05;1.25;;;14.70;92.70;;;;;;4924200;28;88091;-74
2023/11/02 12:26:31;;;;;;;12.57;1.10;;;14.80;92.10;;;;;;4927497;28;87423;-77
2023/11/02 12:28:58;;;;;;;7.43;1.02;;;14.80;91.40;;;;;;4901462;28;88566;-76
2023/11/02 12:31:43;;;;;;;7.65;1.50;;;15.00;91.60;;;;;;4914659;28;89687;-75
2023/11/02 12:34:12;;;;;;;9.35;1.00;;;15.30;90.70;;;;;;4919829;28;88032;-75
2023/11/02 12:36:44;;;;;;;12.75;1.45;;;15.40;90.80;;;;;;4921791;28;87987;-75
2023/11/02 12:39:13;;;;;;;11.70;1.35;;;15.50;90.00;;;;;;4919753;28;88781;-75
2023/11/02 12:41:40;;;;;;;15.38;1.33;;;15.50;90.00;;;;;;4920218;28;87693;-75
2023/11/02 12:44:07;;;;;;;15.90;1.40;;;15.70;89.70;;;;;;4921441;28;88340;-76
2023/11/02 12:46:34;;;;;;;6.57;0.80;;;15.70;89.60;;;;;;4921295;28;88915;-75
2023/11/02 12:49:12;;;;;;;14.60;1.63;;;15.90;90.10;;;;;;4919662;28;91891;-76
2023/11/02 12:51:38;;;;;;;9.85;1.02;;;15.90;88.40;;;;;;4919804;28;88214;-75
2023/11/02 12:54:13;;;;;;;7.78;0.98;;;15.80;88.70;;;;;;4918242;28;88194;-77
2023/11/02 12:56:39;;;;;;;8.25;1.40;;;15.70;88.20;;;;;;4924054;28;88405;-75
2023/11/02 12:59:07;;;;;;;8.30;1.58;;;15.60;90.10;;;;;;4918353;28;93371;-75
2023/11/02 13:01:54;;;;;;;8.18;1.30;;;15.40;88.00;;;;;;4920207;28;87884;-76
2023/11/02 13:04:24;;;;;;;9.23;1.70;;;15.30;88.20;;;;;;4918082;28;90371;-74